sensor_id;sensor_type;location;lat;lon;timestamp;P1;durP1;ratioP1;P2;durP2;ratioP2
15393;SDS011;7795;47.986;11.868;2023-12-20T00:01:28;2.97;;;2.37;;
15393;SDS011;7795;47.986;11.868;2023-12-20T00:03:54;3.37;;;2.10;;
15393;SDS011;7795;47.986;11.868;2023-12-20T00:06:20;2.77;;;2.10;;
15393;SDS011;7795;47.986;11.868;2023-12-20T00:08:46;1.93;;;1.80;;
15393;SDS011;7795;47.986;11.868;2023-12-20T00:11:14;2.03;;;1.80;;
15393;SDS011;7795;47.986;11.868;2023-12-20T00:13:39;2.20;;;1.60;;
15393;SDS011;7795;47.986;11.868;2023-12-20T00:16:05;2.13;;;1.93;;
15393;SDS011;7795;47.986;11.868;2023-12-20T00:18:31;2.20;;;2.00;;
15393;SDS011;7795;47.986;11.868;2023-12-20T00:20:57;2.03;;;1.83;;
15393;SDS011;7795;47.986;11.868;2023-12-20T00:23:23;2.13;;;1.87;;
15393;SDS011;7795;47.986;11.868;2023-12-20T00:25:48;2.73;;;2.00;;
15393;SDS011;7795;47.986;11.868;2023-12-20T00:28:16;2.27;;;2.07;;
15393;SDS011;7795;47.986;11.868;2023-12-20T00:30:41;2.07;;;1.87;;
15393;SDS011;7795;47.986;11.868;2023-12-20T00:33:07;1.90;;;1.70;;
15393;SDS011;7795;47.986;11.868;2023-12-20T00:35:33;2.00;;;1.80;;
15393;SDS011;7795;47.986;11.868;2023-12-20T00:37:59;2.27;;;1.90;;
15393;SDS011;7795;47.986;11.868;2023-12-20T00:40:25;2.60;;;2.40;;
15393;SDS011;7795;47.986;11.868;2023-12-20T00:42:50;3.20;;;1.83;;
15393;SDS011;7795;47.986;11.868;2023-12-20T00:45:18;2.23;;;2.03;;
15393;SDS011;7795;47.986;11.868;2023-12-20T00:47:43;1.93;;;1.77;;
15393;SDS011;7795;47.986;11.868;2023-12-20T00:50:09;2.27;;;1.80;;
15393;SDS011;7795;47.986;11.868;2023-12-20T00:52:35;2.10;;;1.87;;
15393;SDS011;7795;47.986;11.868;2023-12-20T00:55:01;2.17;;;1.97;;
15393;SDS011;7795;47.986;11.868;2023-12-20T00:57:26;1.70;;;1.60;;
15393;SDS011;7795;47.986;11.868;2023-12-20T00:59:52;1.80;;;1.60;;
15393;SDS011;7795;47.986;11.868;2023-12-20T01:02:19;1.63;;;1.53;;
15393;SDS011;7795;47.986;11.868;2023-12-20T01:04:45;2.00;;;1.80;;
15393;SDS011;7795;47.986;11.868;2023-12-20T01:07:14;1.73;;;1.63;;
15393;SDS011;7795;47.986;11.868;2023-12-20T01:09:40;1.70;;;1.60;;
15393;SDS011;7795;47.986;11.868;2023-12-20T01:12:06;2.00;;;1.80;;
15393;SDS011;7795;47.986;11.868;2023-12-20T01:14:32;2.40;;;1.90;;
15393;SDS011;7795;47.986;11.868;2023-12-20T01:16:57;2.10;;;2.00;;
15393;SDS011;7795;47.986;11.868;2023-12-20T01:19:25;2.10;;;1.90;;
15393;SDS011;7795;47.986;11.868;2023-12-20T01:21:52;1.40;;;1.30;;
15393;SDS011;7795;47.986;11.868;2023-12-20T01:24:18;1.97;;;1.83;;
15393;SDS011;7795;47.986;11.868;2023-12-20T01:26:44;1.73;;;1.63;;
15393;SDS011;7795;47.986;11.868;2023-12-20T01:29:10;2.10;;;1.90;;
15393;SDS011;7795;47.986;11.868;2023-12-20T01:31:36;2.27;;;2.07;;
15393;SDS011;7795;47.986;11.868;2023-12-20T01:34:01;2.63;;;1.80;;
15393;SDS011;7795;47.986;11.868;2023-12-20T01:36:29;2.40;;;1.70;;
15393;SDS011;7795;47.986;11.868;2023-12-20T01:38:54;2.13;;;1.90;;
15393;SDS011;7795;47.986;11.868;2023-12-20T01:41:20;2.30;;;1.90;;
15393;SDS011;7795;47.986;11.868;2023-12-20T01:43:46;2.07;;;1.87;;
15393;SDS011;7795;47.986;11.868;2023-12-20T01:46:11;3.53;;;2.07;;
15393;SDS011;7795;47.986;11.868;2023-12-20T01:48:38;2.63;;;1.80;;
15393;SDS011;7795;47.986;11.868;2023-12-20T01:51:04;2.27;;;1.80;;
15393;SDS011;7795;47.986;11.868;2023-12-20T01:53:31;2.30;;;2.10;;
15393;SDS011;7795;47.986;11.868;2023-12-20T01:55:57;2.43;;;1.93;;
15393;SDS011;7795;47.986;11.868;2023-12-20T01:58:24;2.37;;;2.17;;
15393;SDS011;7795;47.986;11.868;2023-12-20T02:00:50;3.03;;;2.50;;
15393;SDS011;7795;47.986;11.868;2023-12-20T02:03:16;2.77;;;2.23;;
15393;SDS011;7795;47.986;11.868;2023-12-20T02:05:42;2.53;;;2.20;;
15393;SDS011;7795;47.986;11.868;2023-12-20T02:08:10;2.23;;;2.03;;
15393;SDS011;7795;47.986;11.868;2023-12-20T02:10:37;2.43;;;2.17;;
15393;SDS011;7795;47.986;11.868;2023-12-20T02:13:03;2.20;;;2.00;;
15393;SDS011;7795;47.986;11.868;2023-12-20T02:19:08;2.30;;;2.10;;
15393;SDS011;7795;47.986;11.868;2023-12-20T02:21:40;2.27;;;2.00;;
15393;SDS011;7795;47.986;11.868;2023-12-20T02:24:06;1.93;;;1.60;;
15393;SDS011;7795;47.986;11.868;2023-12-20T02:26:32;2.63;;;2.13;;
15393;SDS011;7795;47.986;11.868;2023-12-20T02:28:58;2.50;;;2.10;;
15393;SDS011;7795;47.986;11.868;2023-12-20T02:31:24;2.10;;;1.90;;
15393;SDS011;7795;47.986;11.868;2023-12-20T02:33:50;2.87;;;2.13;;
15393;SDS011;7795;47.986;11.868;2023-12-20T02:36:15;2.50;;;2.20;;
15393;SDS011;7795;47.986;11.868;2023-12-20T02:38:43;2.63;;;2.30;;
15393;SDS011;7795;47.986;11.868;2023-12-20T02:41:08;2.40;;;2.20;;
15393;SDS011;7795;47.986;11.868;2023-12-20T02:43:34;2.30;;;2.00;;
15393;SDS011;7795;47.986;11.868;2023-12-20T02:46:00;2.20;;;2.00;;
15393;SDS011;7795;47.986;11.868;2023-12-20T02:48:25;2.27;;;2.07;;
15393;SDS011;7795;47.986;11.868;2023-12-20T02:50:51;2.43;;;2.23;;
15393;SDS011;7795;47.986;11.868;2023-12-20T02:53:17;2.50;;;2.30;;
15393;SDS011;7795;47.986;11.868;2023-12-20T02:55:44;2.40;;;2.10;;
15393;SDS011;7795;47.986;11.868;2023-12-20T02:58:10;2.83;;;2.07;;
15393;SDS011;7795;47.986;11.868;2023-12-20T03:00:35;2.50;;;2.30;;
15393;SDS011;7795;47.986;11.868;2023-12-20T03:03:01;2.00;;;1.80;;
15393;SDS011;7795;47.986;11.868;2023-12-20T03:05:27;2.33;;;1.83;;
15393;SDS011;7795;47.986;11.868;2023-12-20T03:07:53;2.40;;;2.20;;
15393;SDS011;7795;47.986;11.868;2023-12-20T03:10:18;2.50;;;2.30;;
15393;SDS011;7795;47.986;11.868;2023-12-20T03:12:45;2.83;;;2.27;;
15393;SDS011;7795;47.986;11.868;2023-12-20T03:15:11;2.50;;;2.10;;
15393;SDS011;7795;47.986;11.868;2023-12-20T03:17:37;1.90;;;1.70;;
15393;SDS011;7795;47.986;11.868;2023-12-20T03:20:03;1.90;;;1.77;;
15393;SDS011;7795;47.986;11.868;2023-12-20T03:22:29;2.03;;;1.83;;
15393;SDS011;7795;47.986;11.868;2023-12-20T03:24:55;2.13;;;1.73;;
15393;SDS011;7795;47.986;11.868;2023-12-20T03:27:21;2.07;;;1.87;;
15393;SDS011;7795;47.986;11.868;2023-12-20T03:29:48;1.83;;;1.73;;
15393;SDS011;7795;47.986;11.868;2023-12-20T03:32:14;3.90;;;2.50;;
15393;SDS011;7795;47.986;11.868;2023-12-20T03:34:39;2.53;;;2.30;;
15393;SDS011;7795;47.986;11.868;2023-12-20T03:37:05;2.10;;;1.90;;
15393;SDS011;7795;47.986;11.868;2023-12-20T03:39:31;2.00;;;1.80;;
15393;SDS011;7795;47.986;11.868;2023-12-20T03:41:56;2.13;;;1.87;;
15393;SDS011;7795;47.986;11.868;2023-12-20T03:44:22;2.10;;;2.00;;
15393;SDS011;7795;47.986;11.868;2023-12-20T03:46:49;2.23;;;1.90;;
15393;SDS011;7795;47.986;11.868;2023-12-20T03:49:15;1.70;;;1.60;;
15393;SDS011;7795;47.986;11.868;2023-12-20T03:51:41;1.80;;;1.70;;
15393;SDS011;7795;47.986;11.868;2023-12-20T03:54:07;2.37;;;1.80;;
15393;SDS011;7795;47.986;11.868;2023-12-20T03:56:33;1.73;;;1.60;;
15393;SDS011;7795;47.986;11.868;2023-12-20T03:58:59;1.83;;;1.67;;
15393;SDS011;7795;47.986;11.868;2023-12-20T04:01:24;1.83;;;1.43;;
15393;SDS011;7795;47.986;11.868;2023-12-20T04:03:52;1.70;;;1.60;;
15393;SDS011;7795;47.986;11.868;2023-12-20T04:06:18;1.70;;;1.60;;
15393;SDS011;7795;47.986;11.868;2023-12-20T04:08:44;2.23;;;1.60;;
15393;SDS011;7795;47.986;11.868;2023-12-20T04:11:09;1.70;;;1.60;;
15393;SDS011;7795;47.986;11.868;2023-12-20T04:13:35;1.77;;;1.50;;
15393;SDS011;7795;47.986;11.868;2023-12-20T04:16:01;2.10;;;1.90;;
15393;SDS011;7795;47.986;11.868;2023-12-20T04:18:26;1.43;;;1.30;;
15393;SDS011;7795;47.986;11.868;2023-12-20T04:20:54;1.60;;;1.50;;
15393;SDS011;7795;47.986;11.868;2023-12-20T04:23:20;1.73;;;1.63;;
15393;SDS011;7795;47.986;11.868;2023-12-20T04:25:46;1.43;;;1.30;;
15393;SDS011;7795;47.986;11.868;2023-12-20T04:28:12;1.97;;;1.63;;
15393;SDS011;7795;47.986;11.868;2023-12-20T04:30:37;2.03;;;1.50;;
15393;SDS011;7795;47.986;11.868;2023-12-20T04:33:03;2.07;;;1.37;;
15393;SDS011;7795;47.986;11.868;2023-12-20T04:35:29;1.40;;;1.30;;
15393;SDS011;7795;47.986;11.868;2023-12-20T04:37:56;1.33;;;1.20;;
15393;SDS011;7795;47.986;11.868;2023-12-20T04:40:22;1.67;;;1.07;;
15393;SDS011;7795;47.986;11.868;2023-12-20T04:42:47;2.67;;;1.47;;
15393;SDS011;7795;47.986;11.868;2023-12-20T04:45:13;0.80;;;0.80;;
15393;SDS011;7795;47.986;11.868;2023-12-20T04:47:41;1.30;;;1.20;;
15393;SDS011;7795;47.986;11.868;2023-12-20T04:50:07;1.20;;;1.10;;
15393;SDS011;7795;47.986;11.868;2023-12-20T04:52:34;1.20;;;1.10;;
15393;SDS011;7795;47.986;11.868;2023-12-20T04:55:02;1.80;;;1.20;;
15393;SDS011;7795;47.986;11.868;2023-12-20T04:57:28;1.30;;;1.20;;
15393;SDS011;7795;47.986;11.868;2023-12-20T04:59:53;1.10;;;1.00;;
15393;SDS011;7795;47.986;11.868;2023-12-20T05:02:19;1.33;;;1.23;;
15393;SDS011;7795;47.986;11.868;2023-12-20T05:04:45;1.17;;;1.07;;
15393;SDS011;7795;47.986;11.868;2023-12-20T05:07:11;1.00;;;1.00;;
15393;SDS011;7795;47.986;11.868;2023-12-20T05:09:36;1.60;;;1.20;;
15393;SDS011;7795;47.986;11.868;2023-12-20T05:12:04;1.07;;;0.90;;
15393;SDS011;7795;47.986;11.868;2023-12-20T05:14:30;1.10;;;1.00;;
15393;SDS011;7795;47.986;11.868;2023-12-20T05:16:56;1.30;;;1.20;;
15393;SDS011;7795;47.986;11.868;2023-12-20T05:19:22;1.30;;;1.20;;
15393;SDS011;7795;47.986;11.868;2023-12-20T05:21:48;1.43;;;1.20;;
15393;SDS011;7795;47.986;11.868;2023-12-20T05:24:14;1.10;;;1.10;;
15393;SDS011;7795;47.986;11.868;2023-12-20T05:26:40;2.60;;;1.30;;
15393;SDS011;7795;47.986;11.868;2023-12-20T05:29:07;2.40;;;1.10;;
15393;SDS011;7795;47.986;11.868;2023-12-20T05:31:33;3.37;;;1.70;;
15393;SDS011;7795;47.986;11.868;2023-12-20T05:33:59;2.40;;;1.43;;
15393;SDS011;7795;47.986;11.868;2023-12-20T05:36:25;1.40;;;1.20;;
15393;SDS011;7795;47.986;11.868;2023-12-20T05:38:51;3.70;;;1.60;;
15393;SDS011;7795;47.986;11.868;2023-12-20T05:41:16;1.23;;;1.00;;
15393;SDS011;7795;47.986;11.868;2023-12-20T05:43:42;4.30;;;1.30;;
15393;SDS011;7795;47.986;11.868;2023-12-20T05:46:10;2.37;;;1.40;;
15393;SDS011;7795;47.986;11.868;2023-12-20T05:48:37;1.10;;;1.00;;
15393;SDS011;7795;47.986;11.868;2023-12-20T05:51:03;2.60;;;1.40;;
15393;SDS011;7795;47.986;11.868;2023-12-20T05:53:29;2.97;;;1.10;;
15393;SDS011;7795;47.986;11.868;2023-12-20T05:55:55;3.13;;;1.30;;
15393;SDS011;7795;47.986;11.868;2023-12-20T05:58:21;5.23;;;2.07;;
15393;SDS011;7795;47.986;11.868;2023-12-20T06:00:46;6.23;;;1.40;;
15393;SDS011;7795;47.986;11.868;2023-12-20T06:03:15;6.63;;;1.87;;
15393;SDS011;7795;47.986;11.868;2023-12-20T06:05:41;3.00;;;1.67;;
15393;SDS011;7795;47.986;11.868;2023-12-20T06:08:06;0.90;;;0.90;;
15393;SDS011;7795;47.986;11.868;2023-12-20T06:10:32;3.37;;;1.37;;
15393;SDS011;7795;47.986;11.868;2023-12-20T06:12:58;1.43;;;1.10;;
15393;SDS011;7795;47.986;11.868;2023-12-20T06:15:25;2.30;;;1.33;;
15393;SDS011;7795;47.986;11.868;2023-12-20T06:17:51;0.90;;;0.83;;
15393;SDS011;7795;47.986;11.868;2023-12-20T06:20:18;1.40;;;0.73;;
15393;SDS011;7795;47.986;11.868;2023-12-20T06:22:44;1.40;;;0.80;;
15393;SDS011;7795;47.986;11.868;2023-12-20T06:25:10;0.60;;;0.60;;
15393;SDS011;7795;47.986;11.868;2023-12-20T06:27:35;1.07;;;0.93;;
15393;SDS011;7795;47.986;11.868;2023-12-20T06:30:01;1.10;;;0.80;;
15393;SDS011;7795;47.986;11.868;2023-12-20T06:32:27;1.43;;;0.80;;
15393;SDS011;7795;47.986;11.868;2023-12-20T06:34:54;2.23;;;0.70;;
15393;SDS011;7795;47.986;11.868;2023-12-20T06:37:21;0.80;;;0.80;;
15393;SDS011;7795;47.986;11.868;2023-12-20T06:39:47;1.37;;;0.77;;
15393;SDS011;7795;47.986;11.868;2023-12-20T06:42:12;1.33;;;1.00;;
15393;SDS011;7795;47.986;11.868;2023-12-20T06:44:38;1.17;;;0.90;;
15393;SDS011;7795;47.986;11.868;2023-12-20T06:47:04;0.83;;;0.83;;
15393;SDS011;7795;47.986;11.868;2023-12-20T06:49:30;1.30;;;1.20;;
15393;SDS011;7795;47.986;11.868;2023-12-20T06:51:56;0.73;;;0.70;;
15393;SDS011;7795;47.986;11.868;2023-12-20T06:54:23;1.53;;;0.90;;
15393;SDS011;7795;47.986;11.868;2023-12-20T06:56:49;1.10;;;0.80;;
15393;SDS011;7795;47.986;11.868;2023-12-20T06:59:14;0.87;;;0.80;;
15393;SDS011;7795;47.986;11.868;2023-12-20T07:01:41;0.90;;;0.90;;
15393;SDS011;7795;47.986;11.868;2023-12-20T07:04:06;2.30;;;0.97;;
15393;SDS011;7795;47.986;11.868;2023-12-20T07:06:32;0.80;;;0.80;;
15393;SDS011;7795;47.986;11.868;2023-12-20T07:09:02;0.93;;;0.90;;
15393;SDS011;7795;47.986;11.868;2023-12-20T07:11:29;1.97;;;0.83;;
15393;SDS011;7795;47.986;11.868;2023-12-20T07:13:55;1.37;;;1.10;;
15393;SDS011;7795;47.986;11.868;2023-12-20T07:16:21;0.90;;;0.90;;
15393;SDS011;7795;47.986;11.868;2023-12-20T07:18:47;0.97;;;0.90;;
15393;SDS011;7795;47.986;11.868;2023-12-20T07:21:13;0.87;;;0.87;;
15393;SDS011;7795;47.986;11.868;2023-12-20T07:23:39;1.10;;;1.00;;
15393;SDS011;7795;47.986;11.868;2023-12-20T07:26:05;0.90;;;0.87;;
15393;SDS011;7795;47.986;11.868;2023-12-20T07:28:32;0.90;;;0.80;;
15393;SDS011;7795;47.986;11.868;2023-12-20T07:30:58;0.80;;;0.77;;
15393;SDS011;7795;47.986;11.868;2023-12-20T07:33:24;1.13;;;1.03;;
15393;SDS011;7795;47.986;11.868;2023-12-20T07:35:49;1.40;;;1.00;;
15393;SDS011;7795;47.986;11.868;2023-12-20T07:38:16;1.03;;;0.93;;
15393;SDS011;7795;47.986;11.868;2023-12-20T07:40:42;2.13;;;1.93;;
15393;SDS011;7795;47.986;11.868;2023-12-20T07:43:08;1.23;;;1.10;;
15393;SDS011;7795;47.986;11.868;2023-12-20T07:45:35;1.40;;;1.30;;
15393;SDS011;7795;47.986;11.868;2023-12-20T07:48:01;1.10;;;1.00;;
15393;SDS011;7795;47.986;11.868;2023-12-20T07:50:27;1.60;;;1.50;;
15393;SDS011;7795;47.986;11.868;2023-12-20T07:52:52;1.20;;;0.90;;
15393;SDS011;7795;47.986;11.868;2023-12-20T07:55:18;2.43;;;1.00;;
15393;SDS011;7795;47.986;11.868;2023-12-20T07:57:44;1.20;;;1.10;;
15393;SDS011;7795;47.986;11.868;2023-12-20T08:00:10;1.00;;;1.00;;
15393;SDS011;7795;47.986;11.868;2023-12-20T08:02:38;1.90;;;1.17;;
15393;SDS011;7795;47.986;11.868;2023-12-20T08:05:03;3.27;;;1.00;;
15393;SDS011;7795;47.986;11.868;2023-12-20T08:07:29;1.67;;;1.00;;
15393;SDS011;7795;47.986;11.868;2023-12-20T08:09:55;1.70;;;1.60;;
15393;SDS011;7795;47.986;11.868;2023-12-20T08:12:22;3.23;;;2.27;;
15393;SDS011;7795;47.986;11.868;2023-12-20T08:14:47;2.40;;;2.03;;
15393;SDS011;7795;47.986;11.868;2023-12-20T08:17:13;1.57;;;1.40;;
15393;SDS011;7795;47.986;11.868;2023-12-20T08:19:42;1.90;;;1.70;;
15393;SDS011;7795;47.986;11.868;2023-12-20T08:22:08;1.00;;;1.00;;
15393;SDS011;7795;47.986;11.868;2023-12-20T08:24:34;1.80;;;1.20;;
15393;SDS011;7795;47.986;11.868;2023-12-20T08:27:00;1.00;;;0.97;;
15393;SDS011;7795;47.986;11.868;2023-12-20T08:29:25;3.00;;;1.67;;
15393;SDS011;7795;47.986;11.868;2023-12-20T08:31:52;1.57;;;1.43;;
15393;SDS011;7795;47.986;11.868;2023-12-20T08:34:18;1.87;;;1.30;;
15393;SDS011;7795;47.986;11.868;2023-12-20T08:36:45;1.43;;;1.33;;
15393;SDS011;7795;47.986;11.868;2023-12-20T08:39:11;5.60;;;1.30;;
15393;SDS011;7795;47.986;11.868;2023-12-20T08:41:37;2.10;;;1.50;;
15393;SDS011;7795;47.986;11.868;2023-12-20T08:44:03;1.30;;;1.20;;
15393;SDS011;7795;47.986;11.868;2023-12-20T08:46:28;1.33;;;1.00;;
15393;SDS011;7795;47.986;11.868;2023-12-20T08:48:54;1.10;;;1.00;;
15393;SDS011;7795;47.986;11.868;2023-12-20T08:51:20;1.73;;;1.30;;
15393;SDS011;7795;47.986;11.868;2023-12-20T08:53:49;2.63;;;1.40;;
15393;SDS011;7795;47.986;11.868;2023-12-20T08:56:15;2.00;;;1.63;;
15393;SDS011;7795;47.986;11.868;2023-12-20T08:58:41;1.57;;;1.10;;
15393;SDS011;7795;47.986;11.868;2023-12-20T09:01:07;2.23;;;0.97;;
15393;SDS011;7795;47.986;11.868;2023-12-20T09:03:33;1.00;;;1.00;;
15393;SDS011;7795;47.986;11.868;2023-12-20T09:05:59;1.13;;;1.03;;
15393;SDS011;7795;47.986;11.868;2023-12-20T09:08:24;0.90;;;0.90;;
15393;SDS011;7795;47.986;11.868;2023-12-20T09:10:51;1.10;;;1.00;;
15393;SDS011;7795;47.986;11.868;2023-12-20T09:13:17;0.80;;;0.80;;
15393;SDS011;7795;47.986;11.868;2023-12-20T09:15:43;0.87;;;0.87;;
15393;SDS011;7795;47.986;11.868;2023-12-20T09:18:09;0.90;;;0.90;;
15393;SDS011;7795;47.986;11.868;2023-12-20T09:20:35;1.43;;;1.00;;
15393;SDS011;7795;47.986;11.868;2023-12-20T09:23:01;1.30;;;1.20;;
15393;SDS011;7795;47.986;11.868;2023-12-20T09:25:26;1.20;;;1.10;;
15393;SDS011;7795;47.986;11.868;2023-12-20T09:27:54;1.63;;;1.10;;
15393;SDS011;7795;47.986;11.868;2023-12-20T09:30:20;1.10;;;1.00;;
15393;SDS011;7795;47.986;11.868;2023-12-20T09:32:46;1.27;;;1.17;;
15393;SDS011;7795;47.986;11.868;2023-12-20T09:35:12;1.10;;;1.00;;
15393;SDS011;7795;47.986;11.868;2023-12-20T09:37:38;1.60;;;1.30;;
15393;SDS011;7795;47.986;11.868;2023-12-20T09:40:06;1.53;;;1.43;;
15393;SDS011;7795;47.986;11.868;2023-12-20T09:42:37;1.33;;;1.23;;
15393;SDS011;7795;47.986;11.868;2023-12-20T09:45:08;1.10;;;1.10;;
15393;SDS011;7795;47.986;11.868;2023-12-20T09:47:35;2.10;;;1.20;;
15393;SDS011;7795;47.986;11.868;2023-12-20T09:50:01;1.30;;;1.20;;
15393;SDS011;7795;47.986;11.868;2023-12-20T09:52:27;1.90;;;1.03;;
15393;SDS011;7795;47.986;11.868;2023-12-20T09:54:53;1.40;;;1.23;;
15393;SDS011;7795;47.986;11.868;2023-12-20T09:57:20;2.53;;;1.37;;
15393;SDS011;7795;47.986;11.868;2023-12-20T09:59:46;1.33;;;1.23;;
15393;SDS011;7795;47.986;11.868;2023-12-20T10:02:13;1.60;;;1.50;;
15393;SDS011;7795;47.986;11.868;2023-12-20T10:04:41;2.23;;;2.03;;
15393;SDS011;7795;47.986;11.868;2023-12-20T10:07:11;4.30;;;2.40;;
15393;SDS011;7795;47.986;11.868;2023-12-20T10:09:37;2.73;;;1.77;;
15393;SDS011;7795;47.986;11.868;2023-12-20T10:12:04;7.57;;;5.40;;
15393;SDS011;7795;47.986;11.868;2023-12-20T10:14:32;3.07;;;2.40;;
15393;SDS011;7795;47.986;11.868;2023-12-20T10:17:01;3.73;;;2.77;;
15393;SDS011;7795;47.986;11.868;2023-12-20T10:19:29;1.90;;;1.50;;
15393;SDS011;7795;47.986;11.868;2023-12-20T10:21:54;1.13;;;1.13;;
15393;SDS011;7795;47.986;11.868;2023-12-20T10:24:20;1.57;;;1.47;;
15393;SDS011;7795;47.986;11.868;2023-12-20T10:26:46;1.70;;;1.60;;
15393;SDS011;7795;47.986;11.868;2023-12-20T10:29:12;1.37;;;1.20;;
15393;SDS011;7795;47.986;11.868;2023-12-20T10:31:38;1.53;;;1.43;;
15393;SDS011;7795;47.986;11.868;2023-12-20T10:34:04;0.90;;;0.90;;
15393;SDS011;7795;47.986;11.868;2023-12-20T10:36:32;1.30;;;1.20;;
15393;SDS011;7795;47.986;11.868;2023-12-20T10:38:58;1.33;;;0.90;;
15393;SDS011;7795;47.986;11.868;2023-12-20T10:41:25;1.10;;;0.90;;
15393;SDS011;7795;47.986;11.868;2023-12-20T10:43:53;1.13;;;0.83;;
15393;SDS011;7795;47.986;11.868;2023-12-20T10:46:24;0.97;;;0.97;;
15393;SDS011;7795;47.986;11.868;2023-12-20T10:48:51;2.57;;;1.10;;
15393;SDS011;7795;47.986;11.868;2023-12-20T10:51:19;0.80;;;0.80;;
15393;SDS011;7795;47.986;11.868;2023-12-20T10:53:47;1.40;;;0.80;;
15393;SDS011;7795;47.986;11.868;2023-12-20T10:56:15;1.20;;;1.00;;
15393;SDS011;7795;47.986;11.868;2023-12-20T10:58:43;1.33;;;1.17;;
15393;SDS011;7795;47.986;11.868;2023-12-20T11:01:09;0.73;;;0.73;;
15393;SDS011;7795;47.986;11.868;2023-12-20T11:03:37;0.70;;;0.70;;
15393;SDS011;7795;47.986;11.868;2023-12-20T11:06:07;1.00;;;1.00;;
15393;SDS011;7795;47.986;11.868;2023-12-20T11:08:39;0.77;;;0.77;;
15393;SDS011;7795;47.986;11.868;2023-12-20T11:11:14;0.80;;;0.80;;
15393;SDS011;7795;47.986;11.868;2023-12-20T11:13:53;0.70;;;0.70;;
15393;SDS011;7795;47.986;11.868;2023-12-20T11:16:22;1.37;;;0.80;;
15393;SDS011;7795;47.986;11.868;2023-12-20T11:18:47;0.90;;;0.87;;
15393;SDS011;7795;47.986;11.868;2023-12-20T11:21:16;0.57;;;0.57;;
15393;SDS011;7795;47.986;11.868;2023-12-20T11:23:42;0.60;;;0.60;;
15393;SDS011;7795;47.986;11.868;2023-12-20T11:26:08;0.70;;;0.70;;
15393;SDS011;7795;47.986;11.868;2023-12-20T11:28:35;1.30;;;1.07;;
15393;SDS011;7795;47.986;11.868;2023-12-20T11:31:01;1.93;;;1.47;;
15393;SDS011;7795;47.986;11.868;2023-12-20T11:33:29;2.10;;;1.63;;
15393;SDS011;7795;47.986;11.868;2023-12-20T11:35:56;1.80;;;1.20;;
15393;SDS011;7795;47.986;11.868;2023-12-20T11:38:24;1.67;;;1.47;;
15393;SDS011;7795;47.986;11.868;2023-12-20T11:40:50;2.77;;;1.67;;
15393;SDS011;7795;47.986;11.868;2023-12-20T11:43:30;2.97;;;2.10;;
15393;SDS011;7795;47.986;11.868;2023-12-20T11:46:03;2.83;;;2.33;;
15393;SDS011;7795;47.986;11.868;2023-12-20T11:48:30;1.83;;;1.50;;
15393;SDS011;7795;47.986;11.868;2023-12-20T11:50:56;1.83;;;1.63;;
15393;SDS011;7795;47.986;11.868;2023-12-20T11:53:22;1.77;;;1.40;;
15393;SDS011;7795;47.986;11.868;2023-12-20T11:55:48;2.00;;;1.57;;
15393;SDS011;7795;47.986;11.868;2023-12-20T11:58:14;1.47;;;1.37;;
15393;SDS011;7795;47.986;11.868;2023-12-20T12:00:41;0.93;;;0.90;;
15393;SDS011;7795;47.986;11.868;2023-12-20T12:03:09;0.93;;;0.87;;
15393;SDS011;7795;47.986;11.868;2023-12-20T12:05:35;1.00;;;0.80;;
15393;SDS011;7795;47.986;11.868;2023-12-20T12:08:01;1.07;;;0.70;;
15393;SDS011;7795;47.986;11.868;2023-12-20T12:10:27;1.03;;;0.80;;
15393;SDS011;7795;47.986;11.868;2023-12-20T12:12:53;1.03;;;0.90;;
15393;SDS011;7795;47.986;11.868;2023-12-20T12:15:19;1.37;;;1.20;;
15393;SDS011;7795;47.986;11.868;2023-12-20T12:17:52;1.53;;;1.30;;
15393;SDS011;7795;47.986;11.868;2023-12-20T12:20:20;2.67;;;1.53;;
15393;SDS011;7795;47.986;11.868;2023-12-20T12:22:45;5.30;;;2.33;;
15393;SDS011;7795;47.986;11.868;2023-12-20T12:25:15;1.63;;;1.30;;
15393;SDS011;7795;47.986;11.868;2023-12-20T12:27:41;5.93;;;2.63;;
15393;SDS011;7795;47.986;11.868;2023-12-20T12:30:08;6.00;;;2.53;;
15393;SDS011;7795;47.986;11.868;2023-12-20T12:32:43;5.80;;;2.90;;
15393;SDS011;7795;47.986;11.868;2023-12-20T12:35:09;7.13;;;3.80;;
15393;SDS011;7795;47.986;11.868;2023-12-20T12:37:37;7.63;;;3.50;;
15393;SDS011;7795;47.986;11.868;2023-12-20T12:40:09;3.13;;;2.00;;
15393;SDS011;7795;47.986;11.868;2023-12-20T12:42:36;1.73;;;1.10;;
15393;SDS011;7795;47.986;11.868;2023-12-20T12:45:01;1.63;;;1.20;;
15393;SDS011;7795;47.986;11.868;2023-12-20T12:47:27;0.93;;;0.90;;
15393;SDS011;7795;47.986;11.868;2023-12-20T12:49:53;1.10;;;1.00;;
15393;SDS011;7795;47.986;11.868;2023-12-20T12:52:19;1.20;;;1.10;;
15393;SDS011;7795;47.986;11.868;2023-12-20T12:54:46;2.07;;;1.13;;
15393;SDS011;7795;47.986;11.868;2023-12-20T12:57:13;1.70;;;1.20;;
15393;SDS011;7795;47.986;11.868;2023-12-20T12:59:40;2.80;;;1.60;;
15393;SDS011;7795;47.986;11.868;2023-12-20T13:02:06;2.73;;;2.23;;
15393;SDS011;7795;47.986;11.868;2023-12-20T13:04:31;3.63;;;2.00;;
15393;SDS011;7795;47.986;11.868;2023-12-20T13:06:57;1.93;;;1.17;;
15393;SDS011;7795;47.986;11.868;2023-12-20T13:09:23;1.53;;;1.37;;
15393;SDS011;7795;47.986;11.868;2023-12-20T13:11:50;2.03;;;1.33;;
15393;SDS011;7795;47.986;11.868;2023-12-20T13:14:16;2.10;;;1.13;;
15393;SDS011;7795;47.986;11.868;2023-12-20T13:16:42;1.17;;;1.07;;
15393;SDS011;7795;47.986;11.868;2023-12-20T13:19:07;2.30;;;1.20;;
15393;SDS011;7795;47.986;11.868;2023-12-20T13:21:35;2.00;;;1.00;;
15393;SDS011;7795;47.986;11.868;2023-12-20T13:24:00;1.17;;;1.00;;
15393;SDS011;7795;47.986;11.868;2023-12-20T13:26:26;1.40;;;1.20;;
15393;SDS011;7795;47.986;11.868;2023-12-20T13:28:53;1.67;;;1.10;;
15393;SDS011;7795;47.986;11.868;2023-12-20T13:31:19;1.10;;;1.10;;
15393;SDS011;7795;47.986;11.868;2023-12-20T13:33:45;1.40;;;1.20;;
15393;SDS011;7795;47.986;11.868;2023-12-20T13:36:11;1.17;;;1.07;;
15393;SDS011;7795;47.986;11.868;2023-12-20T13:38:37;1.10;;;1.00;;
15393;SDS011;7795;47.986;11.868;2023-12-20T13:41:03;2.33;;;1.10;;
15393;SDS011;7795;47.986;11.868;2023-12-20T13:43:29;1.77;;;1.27;;
15393;SDS011;7795;47.986;11.868;2023-12-20T13:45:56;1.10;;;1.10;;
15393;SDS011;7795;47.986;11.868;2023-12-20T13:48:22;1.13;;;1.03;;
15393;SDS011;7795;47.986;11.868;2023-12-20T13:50:48;1.10;;;1.00;;
15393;SDS011;7795;47.986;11.868;2023-12-20T13:53:14;1.20;;;1.10;;
15393;SDS011;7795;47.986;11.868;2023-12-20T13:55:39;1.97;;;1.00;;
15393;SDS011;7795;47.986;11.868;2023-12-20T13:58:05;1.20;;;1.10;;
15393;SDS011;7795;47.986;11.868;2023-12-20T14:00:31;0.97;;;0.87;;
15393;SDS011;7795;47.986;11.868;2023-12-20T14:02:58;1.40;;;1.30;;
15393;SDS011;7795;47.986;11.868;2023-12-20T14:05:24;1.20;;;1.10;;
15393;SDS011;7795;47.986;11.868;2023-12-20T14:07:51;1.90;;;1.07;;
15393;SDS011;7795;47.986;11.868;2023-12-20T14:10:16;2.80;;;1.90;;
15393;SDS011;7795;47.986;11.868;2023-12-20T14:12:42;1.70;;;1.57;;
15393;SDS011;7795;47.986;11.868;2023-12-20T14:15:09;1.40;;;1.30;;
15393;SDS011;7795;47.986;11.868;2023-12-20T14:17:38;1.40;;;1.30;;
15393;SDS011;7795;47.986;11.868;2023-12-20T14:20:06;1.87;;;1.47;;
15393;SDS011;7795;47.986;11.868;2023-12-20T14:22:32;1.50;;;1.37;;
15393;SDS011;7795;47.986;11.868;2023-12-20T14:24:58;1.97;;;1.83;;
15393;SDS011;7795;47.986;11.868;2023-12-20T14:27:24;2.60;;;1.87;;
15393;SDS011;7795;47.986;11.868;2023-12-20T14:29:52;1.67;;;1.57;;
15393;SDS011;7795;47.986;11.868;2023-12-20T14:32:18;1.50;;;1.40;;
15393;SDS011;7795;47.986;11.868;2023-12-20T14:34:44;2.47;;;2.13;;
15393;SDS011;7795;47.986;11.868;2023-12-20T14:37:11;2.40;;;1.57;;
15393;SDS011;7795;47.986;11.868;2023-12-20T14:39:37;3.90;;;1.60;;
15393;SDS011;7795;47.986;11.868;2023-12-20T14:42:06;2.73;;;1.93;;
15393;SDS011;7795;47.986;11.868;2023-12-20T14:44:32;2.03;;;1.83;;
15393;SDS011;7795;47.986;11.868;2023-12-20T14:46:58;2.40;;;1.30;;